sensor_id;sensor_type;location;lat;lon;timestamp;P1;durP1;ratioP1;P2;durP2;ratioP2
6031;SDS011;3044;43.232;27.972;2023-04-01T00:00:54;9.50;;;3.77;;
6031;SDS011;3044;43.232;27.972;2023-04-01T00:03:22;6.40;;;3.17;;
6031;SDS011;3044;43.232;27.972;2023-04-01T00:05:50;11.77;;;4.00;;
6031;SDS011;3044;43.232;27.972;2023-04-01T00:08:18;5.33;;;3.57;;
6031;SDS011;3044;43.232;27.972;2023-04-01T00:10:45;5.50;;;3.63;;
6031;SDS011;3044;43.232;27.972;2023-04-01T00:13:12;8.60;;;3.63;;
6031;SDS011;3044;43.232;27.972;2023-04-01T00:15:40;5.30;;;3.43;;
6031;SDS011;3044;43.232;27.972;2023-04-01T00:18:09;9.27;;;4.97;;
6031;SDS011;3044;43.232;27.972;2023-04-01T00:20:37;4.63;;;3.87;;
6031;SDS011;3044;43.232;27.972;2023-04-01T00:23:04;3.50;;;3.20;;
6031;SDS011;3044;43.232;27.972;2023-04-01T00:25:31;9.53;;;3.87;;
6031;SDS011;3044;43.232;27.972;2023-04-01T00:27:58;8.70;;;3.77;;
6031;SDS011;3044;43.232;27.972;2023-04-01T00:30:25;7.70;;;4.23;;
6031;SDS011;3044;43.232;27.972;2023-04-01T00:32:53;7.93;;;3.57;;
6031;SDS011;3044;43.232;27.972;2023-04-01T00:35:21;11.13;;;3.53;;
6031;SDS011;3044;43.232;27.972;2023-04-01T00:37:48;21.30;;;4.00;;
6031;SDS011;3044;43.232;27.972;2023-04-01T00:40:22;7.70;;;4.50;;
6031;SDS011;3044;43.232;27.972;2023-04-01T00:42:52;12.37;;;3.77;;
6031;SDS011;3044;43.232;27.972;2023-04-01T00:48:06;10.30;;;3.60;;
6031;SDS011;3044;43.232;27.972;2023-04-01T00:50:38;4.60;;;3.03;;
6031;SDS011;3044;43.232;27.972;2023-04-01T00:53:07;3.00;;;2.80;;
6031;SDS011;3044;43.232;27.972;2023-04-01T00:55:35;6.43;;;3.70;;
6031;SDS011;3044;43.232;27.972;2023-04-01T00:58:09;6.83;;;3.33;;
6031;SDS011;3044;43.232;27.972;2023-04-01T01:00:40;5.33;;;3.60;;
6031;SDS011;3044;43.232;27.972;2023-04-01T01:03:07;6.30;;;3.50;;
6031;SDS011;3044;43.232;27.972;2023-04-01T01:05:50;21.80;;;13.00;;
6031;SDS011;3044;43.232;27.972;2023-04-01T01:08:41;11.80;;;7.40;;
6031;SDS011;3044;43.232;27.972;2023-04-01T01:11:25;18.57;;;15.33;;
6031;SDS011;3044;43.232;27.972;2023-04-01T01:14:01;18.23;;;12.40;;
6031;SDS011;3044;43.232;27.972;2023-04-01T01:16:39;16.10;;;10.60;;
6031;SDS011;3044;43.232;27.972;2023-04-01T01:19:11;21.10;;;12.77;;
6031;SDS011;3044;43.232;27.972;2023-04-01T01:21:57;20.93;;;12.70;;
6031;SDS011;3044;43.232;27.972;2023-04-01T01:24:42;21.20;;;13.63;;
6031;SDS011;3044;43.232;27.972;2023-04-01T01:27:21;19.17;;;12.60;;
6031;SDS011;3044;43.232;27.972;2023-04-01T01:30:01;20.47;;;11.00;;
6031;SDS011;3044;43.232;27.972;2023-04-01T01:32:43;18.80;;;10.90;;
6031;SDS011;3044;43.232;27.972;2023-04-01T01:35:24;15.13;;;7.20;;
6031;SDS011;3044;43.232;27.972;2023-04-01T01:37:56;9.27;;;4.60;;
6031;SDS011;3044;43.232;27.972;2023-04-01T01:40:27;13.77;;;5.03;;
6031;SDS011;3044;43.232;27.972;2023-04-01T01:42:57;7.40;;;3.73;;
6031;SDS011;3044;43.232;27.972;2023-04-01T01:45:28;7.43;;;3.63;;
6031;SDS011;3044;43.232;27.972;2023-04-01T01:47:57;7.23;;;3.77;;
6031;SDS011;3044;43.232;27.972;2023-04-01T01:50:27;6.10;;;3.90;;
6031;SDS011;3044;43.232;27.972;2023-04-01T01:53:02;9.00;;;3.67;;
6031;SDS011;3044;43.232;27.972;2023-04-01T01:55:32;8.43;;;4.10;;
6031;SDS011;3044;43.232;27.972;2023-04-01T01:58:01;7.03;;;3.57;;
6031;SDS011;3044;43.232;27.972;2023-04-01T02:00:32;6.90;;;4.07;;
6031;SDS011;3044;43.232;27.972;2023-04-01T02:03:00;5.00;;;4.40;;
6031;SDS011;3044;43.232;27.972;2023-04-01T02:05:29;7.67;;;3.23;;
6031;SDS011;3044;43.232;27.972;2023-04-01T02:08:00;10.40;;;3.60;;
6031;SDS011;3044;43.232;27.972;2023-04-01T02:10:32;6.83;;;4.33;;
6031;SDS011;3044;43.232;27.972;2023-04-01T02:13:04;10.30;;;4.80;;
6031;SDS011;3044;43.232;27.972;2023-04-01T02:15:37;10.27;;;5.37;;
6031;SDS011;3044;43.232;27.972;2023-04-01T02:18:08;4.77;;;4.00;;
6031;SDS011;3044;43.232;27.972;2023-04-01T02:20:38;15.63;;;4.47;;
6031;SDS011;3044;43.232;27.972;2023-04-01T02:23:07;8.10;;;4.30;;
6031;SDS011;3044;43.232;27.972;2023-04-01T02:25:37;7.30;;;3.93;;
6031;SDS011;3044;43.232;27.972;2023-04-01T02:28:06;11.40;;;4.03;;
6031;SDS011;3044;43.232;27.972;2023-04-01T02:30:35;9.43;;;3.90;;
6031;SDS011;3044;43.232;27.972;2023-04-01T02:33:05;5.00;;;4.40;;
6031;SDS011;3044;43.232;27.972;2023-04-01T02:35:33;8.80;;;4.13;;
6031;SDS011;3044;43.232;27.972;2023-04-01T02:38:04;9.20;;;4.57;;
6031;SDS011;3044;43.232;27.972;2023-04-01T02:40:40;8.50;;;4.00;;
6031;SDS011;3044;43.232;27.972;2023-04-01T02:43:08;6.93;;;4.07;;
6031;SDS011;3044;43.232;27.972;2023-04-01T02:45:36;7.47;;;3.20;;
6031;SDS011;3044;43.232;27.972;2023-04-01T02:48:03;8.80;;;3.60;;
6031;SDS011;3044;43.232;27.972;2023-04-01T02:50:31;6.67;;;3.20;;
6031;SDS011;3044;43.232;27.972;2023-04-01T02:52:58;6.77;;;3.00;;
6031;SDS011;3044;43.232;27.972;2023-04-01T02:55:27;6.83;;;3.70;;
6031;SDS011;3044;43.232;27.972;2023-04-01T02:57:55;7.10;;;3.10;;
6031;SDS011;3044;43.232;27.972;2023-04-01T03:00:22;7.83;;;3.23;;
6031;SDS011;3044;43.232;27.972;2023-04-01T03:02:49;5.53;;;3.40;;
6031;SDS011;3044;43.232;27.972;2023-04-01T03:05:17;4.80;;;3.13;;
6031;SDS011;3044;43.232;27.972;2023-04-01T03:07:44;9.70;;;4.50;;
6031;SDS011;3044;43.232;27.972;2023-04-01T03:10:11;8.10;;;3.73;;
6031;SDS011;3044;43.232;27.972;2023-04-01T03:12:40;9.13;;;4.13;;
6031;SDS011;3044;43.232;27.972;2023-04-01T03:15:08;11.40;;;4.20;;
6031;SDS011;3044;43.232;27.972;2023-04-01T03:17:37;7.50;;;3.40;;
6031;SDS011;3044;43.232;27.972;2023-04-01T03:20:04;7.80;;;3.43;;
6031;SDS011;3044;43.232;27.972;2023-04-01T03:22:33;5.70;;;3.30;;
6031;SDS011;3044;43.232;27.972;2023-04-01T03:25:01;9.43;;;4.13;;
6031;SDS011;3044;43.232;27.972;2023-04-01T03:27:28;4.60;;;3.60;;
6031;SDS011;3044;43.232;27.972;2023-04-01T03:29:56;5.33;;;4.63;;
6031;SDS011;3044;43.232;27.972;2023-04-01T03:32:23;12.67;;;4.30;;
6031;SDS011;3044;43.232;27.972;2023-04-01T03:34:52;5.60;;;4.23;;
6031;SDS011;3044;43.232;27.972;2023-04-01T03:37:19;7.40;;;5.03;;
6031;SDS011;3044;43.232;27.972;2023-04-01T03:39:46;10.90;;;6.00;;
6031;SDS011;3044;43.232;27.972;2023-04-01T03:42:13;13.47;;;5.13;;
6031;SDS011;3044;43.232;27.972;2023-04-01T03:44:41;13.83;;;4.30;;
6031;SDS011;3044;43.232;27.972;2023-04-01T03:47:09;11.63;;;5.00;;
6031;SDS011;3044;43.232;27.972;2023-04-01T03:49:36;11.00;;;5.13;;
6031;SDS011;3044;43.232;27.972;2023-04-01T03:52:03;6.37;;;5.10;;
6031;SDS011;3044;43.232;27.972;2023-04-01T03:54:31;7.07;;;5.37;;
6031;SDS011;3044;43.232;27.972;2023-04-01T03:56:58;8.27;;;5.50;;
6031;SDS011;3044;43.232;27.972;2023-04-01T03:59:25;12.70;;;6.00;;
6031;SDS011;3044;43.232;27.972;2023-04-01T04:01:52;10.80;;;7.20;;
6031;SDS011;3044;43.232;27.972;2023-04-01T04:04:21;13.77;;;7.57;;
6031;SDS011;3044;43.232;27.972;2023-04-01T04:06:48;13.53;;;9.10;;
6031;SDS011;3044;43.232;27.972;2023-04-01T04:09:15;57.63;;;31.70;;
6031;SDS011;3044;43.232;27.972;2023-04-01T04:11:43;54.83;;;28.03;;
6031;SDS011;3044;43.232;27.972;2023-04-01T04:14:10;50.57;;;23.33;;
6031;SDS011;3044;43.232;27.972;2023-04-01T04:16:37;22.43;;;11.90;;
6031;SDS011;3044;43.232;27.972;2023-04-01T04:19:04;18.00;;;8.20;;
6031;SDS011;3044;43.232;27.972;2023-04-01T04:21:33;10.30;;;6.10;;
6031;SDS011;3044;43.232;27.972;2023-04-01T04:24:01;10.33;;;5.70;;
6031;SDS011;3044;43.232;27.972;2023-04-01T04:26:29;9.47;;;5.50;;
6031;SDS011;3044;43.232;27.972;2023-04-01T04:28:56;7.23;;;4.50;;
6031;SDS011;3044;43.232;27.972;2023-04-01T04:31:24;8.87;;;3.97;;
6031;SDS011;3044;43.232;27.972;2023-04-01T04:33:51;7.17;;;4.63;;
6031;SDS011;3044;43.232;27.972;2023-04-01T04:36:19;10.87;;;4.63;;
6031;SDS011;3044;43.232;27.972;2023-04-01T04:38:48;9.87;;;4.53;;
6031;SDS011;3044;43.232;27.972;2023-04-01T04:41:16;10.80;;;5.00;;
6031;SDS011;3044;43.232;27.972;2023-04-01T04:43:48;9.20;;;4.87;;
6031;SDS011;3044;43.232;27.972;2023-04-01T04:46:17;11.70;;;4.40;;
6031;SDS011;3044;43.232;27.972;2023-04-01T04:48:45;6.13;;;4.63;;
6031;SDS011;3044;43.232;27.972;2023-04-01T04:51:13;8.77;;;5.50;;
6031;SDS011;3044;43.232;27.972;2023-04-01T04:53:41;11.83;;;4.50;;
6031;SDS011;3044;43.232;27.972;2023-04-01T04:56:10;4.70;;;3.90;;
6031;SDS011;3044;43.232;27.972;2023-04-01T04:58:37;9.83;;;4.70;;
6031;SDS011;3044;43.232;27.972;2023-04-01T05:01:06;16.33;;;4.87;;
6031;SDS011;3044;43.232;27.972;2023-04-01T05:03:34;11.07;;;3.67;;
6031;SDS011;3044;43.232;27.972;2023-04-01T05:06:01;3.60;;;3.30;;
6031;SDS011;3044;43.232;27.972;2023-04-01T05:08:28;9.83;;;4.73;;
6031;SDS011;3044;43.232;27.972;2023-04-01T05:10:55;8.17;;;4.37;;
6031;SDS011;3044;43.232;27.972;2023-04-01T05:13:24;16.13;;;4.27;;
6031;SDS011;3044;43.232;27.972;2023-04-01T05:15:51;10.50;;;3.90;;
6031;SDS011;3044;43.232;27.972;2023-04-01T05:18:18;10.37;;;4.40;;
6031;SDS011;3044;43.232;27.972;2023-04-01T05:20:46;9.70;;;4.37;;
6031;SDS011;3044;43.232;27.972;2023-04-01T05:23:14;7.90;;;4.97;;
6031;SDS011;3044;43.232;27.972;2023-04-01T05:25:41;7.80;;;4.27;;
6031;SDS011;3044;43.232;27.972;2023-04-01T05:28:10;7.80;;;3.70;;
6031;SDS011;3044;43.232;27.972;2023-04-01T05:30:40;12.87;;;4.87;;
6031;SDS011;3044;43.232;27.972;2023-04-01T05:33:08;17.23;;;5.30;;
6031;SDS011;3044;43.232;27.972;2023-04-01T05:35:35;9.63;;;4.80;;
6031;SDS011;3044;43.232;27.972;2023-04-01T05:38:03;15.53;;;6.47;;
6031;SDS011;3044;43.232;27.972;2023-04-01T05:40:30;7.60;;;4.83;;
6031;SDS011;3044;43.232;27.972;2023-04-01T05:42:59;10.50;;;4.27;;
6031;SDS011;3044;43.232;27.972;2023-04-01T05:45:26;10.23;;;5.40;;
6031;SDS011;3044;43.232;27.972;2023-04-01T05:47:56;7.40;;;4.73;;
6031;SDS011;3044;43.232;27.972;2023-04-01T05:50:23;7.60;;;4.03;;
6031;SDS011;3044;43.232;27.972;2023-04-01T05:52:50;6.90;;;3.87;;
6031;SDS011;3044;43.232;27.972;2023-04-01T05:55:18;7.37;;;6.10;;
6031;SDS011;3044;43.232;27.972;2023-04-01T05:57:45;9.90;;;5.80;;
6031;SDS011;3044;43.232;27.972;2023-04-01T06:00:13;9.93;;;4.57;;
6031;SDS011;3044;43.232;27.972;2023-04-01T06:02:41;5.90;;;4.87;;
6031;SDS011;3044;43.232;27.972;2023-04-01T06:05:14;11.03;;;4.63;;
6031;SDS011;3044;43.232;27.972;2023-04-01T06:07:44;10.80;;;5.73;;
6031;SDS011;3044;43.232;27.972;2023-04-01T06:10:12;7.13;;;3.50;;
6031;SDS011;3044;43.232;27.972;2023-04-01T06:12:51;4.77;;;3.20;;
6031;SDS011;3044;43.232;27.972;2023-04-01T06:15:32;5.93;;;3.97;;
6031;SDS011;3044;43.232;27.972;2023-04-01T06:18:10;12.93;;;3.73;;
6031;SDS011;3044;43.232;27.972;2023-04-01T06:21:07;10.17;;;3.90;;
6031;SDS011;3044;43.232;27.972;2023-04-01T06:24:02;12.10;;;4.03;;
6031;SDS011;3044;43.232;27.972;2023-04-01T06:26:43;9.83;;;4.30;;
6031;SDS011;3044;43.232;27.972;2023-04-01T06:29:26;5.67;;;4.20;;
6031;SDS011;3044;43.232;27.972;2023-04-01T06:32:14;11.80;;;5.60;;
6031;SDS011;3044;43.232;27.972;2023-04-01T06:35:00;5.90;;;3.70;;
6031;SDS011;3044;43.232;27.972;2023-04-01T06:37:48;6.10;;;3.70;;
6031;SDS011;3044;43.232;27.972;2023-04-01T06:40:36;8.53;;;3.73;;
6031;SDS011;3044;43.232;27.972;2023-04-01T06:43:17;11.70;;;4.37;;
6031;SDS011;3044;43.232;27.972;2023-04-01T06:45:53;7.50;;;3.80;;
6031;SDS011;3044;43.232;27.972;2023-04-01T06:48:34;6.50;;;4.03;;
6031;SDS011;3044;43.232;27.972;2023-04-01T06:51:15;7.93;;;3.93;;
6031;SDS011;3044;43.232;27.972;2023-04-01T06:53:53;5.87;;;3.50;;
6031;SDS011;3044;43.232;27.972;2023-04-01T06:56:27;12.00;;;4.30;;
6031;SDS011;3044;43.232;27.972;2023-04-01T06:58:56;11.23;;;4.47;;
6031;SDS011;3044;43.232;27.972;2023-04-01T07:01:28;10.10;;;5.57;;
6031;SDS011;3044;43.232;27.972;2023-04-01T07:04:00;9.20;;;4.20;;
6031;SDS011;3044;43.232;27.972;2023-04-01T07:06:35;9.33;;;4.97;;
6031;SDS011;3044;43.232;27.972;2023-04-01T07:09:06;6.90;;;4.17;;
6031;SDS011;3044;43.232;27.972;2023-04-01T07:11:38;10.43;;;4.83;;
6031;SDS011;3044;43.232;27.972;2023-04-01T07:14:08;7.63;;;4.70;;
6031;SDS011;3044;43.232;27.972;2023-04-01T07:16:43;6.90;;;4.33;;
6031;SDS011;3044;43.232;27.972;2023-04-01T07:19:16;7.87;;;3.97;;
6031;SDS011;3044;43.232;27.972;2023-04-01T07:21:47;8.20;;;4.60;;
6031;SDS011;3044;43.232;27.972;2023-04-01T07:24:20;8.80;;;4.07;;
6031;SDS011;3044;43.232;27.972;2023-04-01T07:26:52;8.37;;;4.07;;
6031;SDS011;3044;43.232;27.972;2023-04-01T07:29:21;12.00;;;6.30;;
6031;SDS011;3044;43.232;27.972;2023-04-01T07:31:56;7.67;;;4.73;;
6031;SDS011;3044;43.232;27.972;2023-04-01T07:34:43;8.10;;;4.50;;
6031;SDS011;3044;43.232;27.972;2023-04-01T07:37:42;8.30;;;4.13;;
6031;SDS011;3044;43.232;27.972;2023-04-01T07:40:22;7.67;;;4.37;;
6031;SDS011;3044;43.232;27.972;2023-04-01T07:43:01;8.07;;;4.23;;
6031;SDS011;3044;43.232;27.972;2023-04-01T07:45:46;7.10;;;3.90;;
6031;SDS011;3044;43.232;27.972;2023-04-01T07:48:20;7.43;;;4.00;;
6031;SDS011;3044;43.232;27.972;2023-04-01T07:50:59;11.63;;;4.60;;
6031;SDS011;3044;43.232;27.972;2023-04-01T07:53:31;18.53;;;4.20;;
6031;SDS011;3044;43.232;27.972;2023-04-01T07:56:07;11.83;;;4.00;;
6031;SDS011;3044;43.232;27.972;2023-04-01T07:58:40;17.43;;;4.40;;
6031;SDS011;3044;43.232;27.972;2023-04-01T08:01:18;8.53;;;3.90;;
6031;SDS011;3044;43.232;27.972;2023-04-01T08:03:54;8.60;;;4.77;;
6031;SDS011;3044;43.232;27.972;2023-04-01T08:06:39;8.57;;;4.83;;
6031;SDS011;3044;43.232;27.972;2023-04-01T08:09:18;14.53;;;4.73;;
6031;SDS011;3044;43.232;27.972;2023-04-01T08:12:07;9.07;;;4.40;;
6031;SDS011;3044;43.232;27.972;2023-04-01T08:14:43;18.40;;;4.87;;
6031;SDS011;3044;43.232;27.972;2023-04-01T08:17:20;13.90;;;4.90;;
6031;SDS011;3044;43.232;27.972;2023-04-01T08:19:58;12.93;;;4.20;;
6031;SDS011;3044;43.232;27.972;2023-04-01T08:22:41;10.83;;;4.47;;
6031;SDS011;3044;43.232;27.972;2023-04-01T08:25:14;10.33;;;4.93;;
6031;SDS011;3044;43.232;27.972;2023-04-01T08:27:48;13.50;;;3.90;;
6031;SDS011;3044;43.232;27.972;2023-04-01T08:30:21;17.93;;;4.60;;
6031;SDS011;3044;43.232;27.972;2023-04-01T08:32:51;10.80;;;4.47;;
6031;SDS011;3044;43.232;27.972;2023-04-01T08:35:27;18.20;;;7.60;;
6031;SDS011;3044;43.232;27.972;2023-04-01T08:38:01;23.10;;;12.70;;
6031;SDS011;3044;43.232;27.972;2023-04-01T08:40:39;13.07;;;5.47;;
6031;SDS011;3044;43.232;27.972;2023-04-01T08:43:41;20.00;;;4.43;;
6031;SDS011;3044;43.232;27.972;2023-04-01T08:46:28;13.30;;;4.77;;
6031;SDS011;3044;43.232;27.972;2023-04-01T08:49:16;16.73;;;4.50;;
6031;SDS011;3044;43.232;27.972;2023-04-01T08:57:55;6.53;;;4.23;;
6031;SDS011;3044;43.232;27.972;2023-04-01T09:00:36;8.80;;;4.50;;
6031;SDS011;3044;43.232;27.972;2023-04-01T09:03:15;10.60;;;5.47;;
6031;SDS011;3044;43.232;27.972;2023-04-01T09:05:59;7.17;;;4.20;;
6031;SDS011;3044;43.232;27.972;2023-04-01T09:08:54;12.40;;;4.60;;
6031;SDS011;3044;43.232;27.972;2023-04-01T09:11:34;10.20;;;5.40;;
6031;SDS011;3044;43.232;27.972;2023-04-01T09:14:23;7.80;;;5.27;;
6031;SDS011;3044;43.232;27.972;2023-04-01T09:20:24;7.07;;;5.03;;
6031;SDS011;3044;43.232;27.972;2023-04-01T09:23:37;18.60;;;4.40;;
6031;SDS011;3044;43.232;27.972;2023-04-01T09:29:12;11.07;;;4.93;;
6031;SDS011;3044;43.232;27.972;2023-04-01T09:31:58;7.30;;;4.90;;
6031;SDS011;3044;43.232;27.972;2023-04-01T09:34:46;10.33;;;5.07;;
6031;SDS011;3044;43.232;27.972;2023-04-01T09:37:20;22.90;;;5.40;;
6031;SDS011;3044;43.232;27.972;2023-04-01T09:39:56;10.20;;;5.13;;
6031;SDS011;3044;43.232;27.972;2023-04-01T09:42:43;8.60;;;5.27;;
6031;SDS011;3044;43.232;27.972;2023-04-01T09:45:25;16.37;;;4.90;;
6031;SDS011;3044;43.232;27.972;2023-04-01T09:48:04;18.00;;;4.20;;
6031;SDS011;3044;43.232;27.972;2023-04-01T09:50:44;16.97;;;5.13;;
6031;SDS011;3044;43.232;27.972;2023-04-01T09:53:27;12.53;;;3.90;;
6031;SDS011;3044;43.232;27.972;2023-04-01T09:59:21;11.00;;;5.10;;
6031;SDS011;3044;43.232;27.972;2023-04-01T10:05:30;23.97;;;7.50;;
6031;SDS011;3044;43.232;27.972;2023-04-01T10:11:48;18.43;;;6.80;;
6031;SDS011;3044;43.232;27.972;2023-04-01T10:14:53;12.50;;;6.50;;
6031;SDS011;3044;43.232;27.972;2023-04-01T10:17:46;12.37;;;4.90;;
6031;SDS011;3044;43.232;27.972;2023-04-01T10:23:44;19.00;;;6.13;;
6031;SDS011;3044;43.232;27.972;2023-04-01T10:33:17;16.53;;;5.40;;
6031;SDS011;3044;43.232;27.972;2023-04-01T10:42:26;15.93;;;6.17;;
6031;SDS011;3044;43.232;27.972;2023-04-01T10:45:30;13.53;;;5.43;;
6031;SDS011;3044;43.232;27.972;2023-04-01T10:48:20;22.07;;;5.10;;
6031;SDS011;3044;43.232;27.972;2023-04-01T10:51:18;13.27;;;5.10;;
6031;SDS011;3044;43.232;27.972;2023-04-01T10:54:09;14.20;;;5.43;;
6031;SDS011;3044;43.232;27.972;2023-04-01T10:56:51;18.27;;;5.60;;
6031;SDS011;3044;43.232;27.972;2023-04-01T10:59:32;15.53;;;6.63;;
6031;SDS011;3044;43.232;27.972;2023-04-01T11:08:52;32.23;;;13.83;;
6031;SDS011;3044;43.232;27.972;2023-04-01T11:15:00;18.90;;;8.50;;
6031;SDS011;3044;43.232;27.972;2023-04-01T11:18:13;10.47;;;6.10;;
6031;SDS011;3044;43.232;27.972;2023-04-01T11:21:12;15.90;;;6.87;;
6031;SDS011;3044;43.232;27.972;2023-04-01T11:24:00;14.07;;;6.17;;
6031;SDS011;3044;43.232;27.972;2023-04-01T11:26:44;24.83;;;7.53;;
6031;SDS011;3044;43.232;27.972;2023-04-01T11:29:32;12.80;;;5.83;;
6031;SDS011;3044;43.232;27.972;2023-04-01T11:32:14;12.30;;;5.30;;
6031;SDS011;3044;43.232;27.972;2023-04-01T11:34:55;8.77;;;5.27;;
6031;SDS011;3044;43.232;27.972;2023-04-01T11:37:31;17.40;;;5.77;;
6031;SDS011;3044;43.232;27.972;2023-04-01T11:40:08;16.67;;;5.83;;
6031;SDS011;3044;43.232;27.972;2023-04-01T11:42:49;9.20;;;4.87;;
6031;SDS011;3044;43.232;27.972;2023-04-01T11:45:29;13.27;;;4.90;;
6031;SDS011;3044;43.232;27.972;2023-04-01T11:48:08;10.53;;;4.70;;
6031;SDS011;3044;43.232;27.972;2023-04-01T11:50:52;13.13;;;5.93;;
6031;SDS011;3044;43.232;27.972;2023-04-01T11:53:36;13.33;;;5.40;;
6031;SDS011;3044;43.232;27.972;2023-04-01T11:56:13;18.87;;;5.83;;
6031;SDS011;3044;43.232;27.972;2023-04-01T11:59:08;14.67;;;5.60;;
6031;SDS011;3044;43.232;27.972;2023-04-01T12:02:03;16.93;;;6.40;;
6031;SDS011;3044;43.232;27.972;2023-04-01T12:04:51;8.53;;;5.00;;
6031;SDS011;3044;43.232;27.972;2023-04-01T12:07:32;6.07;;;4.60;;
6031;SDS011;3044;43.232;27.972;2023-04-01T12:10:15;7.30;;;5.23;;
6031;SDS011;3044;43.232;27.972;2023-04-01T12:12:47;15.13;;;5.07;;
6031;SDS011;3044;43.232;27.972;2023-04-01T12:15:20;18.83;;;5.70;;
6031;SDS011;3044;43.232;27.972;2023-04-01T12:17:56;11.30;;;4.50;;
6031;SDS011;3044;43.232;27.972;2023-04-01T12:20:33;15.00;;;6.00;;
6031;SDS011;3044;43.232;27.972;2023-04-01T12:23:17;17.53;;;5.90;;
6031;SDS011;3044;43.232;27.972;2023-04-01T12:28:58;12.60;;;5.93;;
6031;SDS011;3044;43.232;27.972;2023-04-01T12:31:37;18.77;;;5.77;;
6031;SDS011;3044;43.232;27.972;2023-04-01T12:37:10;18.57;;;6.03;;
6031;SDS011;3044;43.232;27.972;2023-04-01T12:39:52;20.53;;;5.90;;
6031;SDS011;3044;43.232;27.972;2023-04-01T12:42:33;17.90;;;6.20;;
6031;SDS011;3044;43.232;27.972;2023-04-01T12:45:19;15.93;;;6.90;;
6031;SDS011;3044;43.232;27.972;2023-04-01T12:48:06;14.83;;;5.67;;
6031;SDS011;3044;43.232;27.972;2023-04-01T12:57:07;17.90;;;7.30;;
6031;SDS011;3044;43.232;27.972;2023-04-01T12:59:50;18.07;;;6.67;;
6031;SDS011;3044;43.232;27.972;2023-04-01T13:02:32;16.47;;;6.83;;
6031;SDS011;3044;43.232;27.972;2023-04-01T13:05:24;24.57;;;8.20;;
6031;SDS011;3044;43.232;27.972;2023-04-01T13:08:20;20.30;;;7.90;;
6031;SDS011;3044;43.232;27.972;2023-04-01T13:16:52;17.60;;;7.40;;
6031;SDS011;3044;43.232;27.972;2023-04-01T13:19:25;17.43;;;8.60;;
6031;SDS011;3044;43.232;27.972;2023-04-01T13:22:01;22.20;;;9.10;;
6031;SDS011;3044;43.232;27.972;2023-04-01T13:24:39;23.30;;;8.53;;
6031;SDS011;3044;43.232;27.972;2023-04-01T13:27:12;16.00;;;8.30;;
6031;SDS011;3044;43.232;27.972;2023-04-01T13:29:45;21.67;;;7.63;;
6031;SDS011;3044;43.232;27.972;2023-04-01T13:32:26;18.43;;;8.20;;
6031;SDS011;3044;43.232;27.972;2023-04-01T13:35:02;23.03;;;9.60;;
6031;SDS011;3044;43.232;27.972;2023-04-01T13:37:52;32.40;;;9.20;;
6031;SDS011;3044;43.232;27.972;2023-04-01T13:40:36;18.77;;;9.40;;
6031;SDS011;3044;43.232;27.972;2023-04-01T13:43:12;20.27;;;9.20;;
6031;SDS011;3044;43.232;27.972;2023-04-01T13:46:05;21.27;;;10.10;;
6031;SDS011;3044;43.232;27.972;2023-04-01T13:48:57;36.07;;;11.37;;
6031;SDS011;3044;43.232;27.972;2023-04-01T13:52:01;17.60;;;9.03;;
6031;SDS011;3044;43.232;27.972;2023-04-01T13:57:43;23.57;;;8.37;;
6031;SDS011;3044;43.232;27.972;2023-04-01T14:00:42;29.27;;;10.00;;
6031;SDS011;3044;43.232;27.972;2023-04-01T14:06:15;16.73;;;6.13;;
6031;SDS011;3044;43.232;27.972;2023-04-01T14:11:53;16.13;;;6.20;;
6031;SDS011;3044;43.232;27.972;2023-04-01T14:14:29;22.60;;;5.77;;
6031;SDS011;3044;43.232;27.972;2023-04-01T14:17:19;18.43;;;5.23;;
6031;SDS011;3044;43.232;27.972;2023-04-01T14:20:08;17.17;;;5.93;;
6031;SDS011;3044;43.232;27.972;2023-04-01T14:22:52;20.30;;;5.67;;
6031;SDS011;3044;43.232;27.972;2023-04-01T14:25:39;20.23;;;6.20;;
6031;SDS011;3044;43.232;27.972;2023-04-01T14:28:25;14.60;;;5.70;;
6031;SDS011;3044;43.232;27.972;2023-04-01T14:31:12;20.90;;;6.50;;
6031;SDS011;3044;43.232;27.972;2023-04-01T14:33:50;20.13;;;5.60;;
6031;SDS011;3044;43.232;27.972;2023-04-01T14:36:32;17.67;;;5.83;;
6031;SDS011;3044;43.232;27.972;2023-04-01T14:39:22;17.17;;;6.30;;
6031;SDS011;3044;43.232;27.972;2023-04-01T14:42:04;14.33;;;6.07;;
6031;SDS011;3044;43.232;27.972;2023-04-01T14:47:58;14.57;;;6.33;;
6031;SDS011;3044;43.232;27.972;2023-04-01T14:50:31;12.33;;;6.07;;
6031;SDS011;3044;43.232;27.972;2023-04-01T14:53:11;15.30;;;6.80;;
6031;SDS011;3044;43.232;27.972;2023-04-01T14:55:51;14.67;;;6.03;;
6031;SDS011;3044;43.232;27.972;2023-04-01T14:58:21;18.30;;;5.83;;
6031;SDS011;3044;43.232;27.972;2023-04-01T15:00:54;25.73;;;7.07;;
6031;SDS011;3044;43.232;27.972;2023-04-01T15:03:34;25.20;;;7.77;;
6031;SDS011;3044;43.232;27.972;2023-04-01T15:09:03;17.80;;;6.50;;
6031;SDS011;3044;43.232;27.972;2023-04-01T15:11:50;22.73;;;7.20;;
6031;SDS011;3044;43.232;27.972;2023-04-01T15:14:26;19.53;;;7.30;;
6031;SDS011;3044;43.232;27.972;2023-04-01T15:17:14;14.63;;;5.63;;
6031;SDS011;3044;43.232;27.972;2023-04-01T15:19:58;18.90;;;5.63;;
6031;SDS011;3044;43.232;27.972;2023-04-01T15:22:51;17.30;;;5.80;;
6031;SDS011;3044;43.232;27.972;2023-04-01T15:25:38;17.00;;;6.23;;
6031;SDS011;3044;43.232;27.972;2023-04-01T15:28:21;14.23;;;5.60;;
6031;SDS011;3044;43.232;27.972;2023-04-01T15:30:57;29.37;;;5.67;;
6031;SDS011;3044;43.232;27.972;2023-04-01T15:33:35;12.77;;;5.93;;
6031;SDS011;3044;43.232;27.972;2023-04-01T15:36:18;19.07;;;5.70;;
6031;SDS011;3044;43.232;27.972;2023-04-01T15:38:57;18.87;;;8.33;;
6031;SDS011;3044;43.232;27.972;2023-04-01T15:41:35;85.67;;;24.27;;
6031;SDS011;3044;43.232;27.972;2023-04-01T15:47:04;23.93;;;9.60;;
6031;SDS011;3044;43.232;27.972;2023-04-01T15:49:45;19.67;;;8.93;;
6031;SDS011;3044;43.232;27.972;2023-04-01T15:52:19;18.43;;;6.30;;
6031;SDS011;3044;43.232;27.972;2023-04-01T15:57:51;16.60;;;7.47;;
6031;SDS011;3044;43.232;27.972;2023-04-01T16:00:30;31.23;;;11.50;;
6031;SDS011;3044;43.232;27.972;2023-04-01T16:06:12;24.37;;;7.90;;
6031;SDS011;3044;43.232;27.972;2023-04-01T16:11:48;27.73;;;6.67;;
6031;SDS011;3044;43.232;27.972;2023-04-01T16:14:26;25.50;;;7.77;;
6031;SDS011;3044;43.232;27.972;2023-04-01T16:17:11;28.00;;;8.27;;
6031;SDS011;3044;43.232;27.972;2023-04-01T16:19:51;19.27;;;7.47;;
6031;SDS011;3044;43.232;27.972;2023-04-01T16:22:21;20.87;;;8.50;;
6031;SDS011;3044;43.232;27.972;2023-04-01T16:24:55;25.30;;;8.70;;
6031;SDS011;3044;43.232;27.972;2023-04-01T16:27:42;21.63;;;7.60;;
6031;SDS011;3044;43.232;27.972;2023-04-01T16:30:23;25.80;;;6.90;;
6031;SDS011;3044;43.232;27.972;2023-04-01T16:33:03;20.37;;;6.77;;
6031;SDS011;3044;43.232;27.972;2023-04-01T16:35:39;22.17;;;8.50;;
6031;SDS011;3044;43.232;27.972;2023-04-01T16:38:12;24.67;;;8.33;;
6031;SDS011;3044;43.232;27.972;2023-04-01T16:40:47;19.53;;;6.37;;
6031;SDS011;3044;43.232;27.972;2023-04-01T16:43:25;24.90;;;7.40;;
6031;SDS011;3044;43.232;27.972;2023-04-01T16:48:52;27.87;;;9.60;;
6031;SDS011;3044;43.232;27.972;2023-04-01T16:51:26;19.77;;;7.37;;
6031;SDS011;3044;43.232;27.972;2023-04-01T16:54:04;29.17;;;9.30;;
6031;SDS011;3044;43.232;27.972;2023-04-01T16:56:39;19.93;;;8.20;;
6031;SDS011;3044;43.232;27.972;2023-04-01T16:59:14;32.47;;;11.80;;
6031;SDS011;3044;43.232;27.972;2023-04-01T17:01:47;34.37;;;9.40;;
6031;SDS011;3044;43.232;27.972;2023-04-01T17:04:23;41.23;;;9.00;;
6031;SDS011;3044;43.232;27.972;2023-04-01T17:06:59;19.10;;;6.73;;
6031;SDS011;3044;43.232;27.972;2023-04-01T17:09:43;27.10;;;7.53;;
6031;SDS011;3044;43.232;27.972;2023-04-01T17:12:31;18.00;;;5.37;;
6031;SDS011;3044;43.232;27.972;2023-04-01T17:15:05;26.73;;;7.60;;
6031;SDS011;3044;43.232;27.972;2023-04-01T17:17:45;17.70;;;6.57;;
6031;SDS011;3044;43.232;27.972;2023-04-01T17:23:19;17.33;;;7.47;;
6031;SDS011;3044;43.232;27.972;2023-04-01T17:26:01;27.50;;;8.00;;
6031;SDS011;3044;43.232;27.972;2023-04-01T17:28:46;19.10;;;6.43;;
6031;SDS011;3044;43.232;27.972;2023-04-01T17:31:30;23.37;;;7.97;;